KMZZ

Marion Municipal Airport

Marion, Indiana, USA
METAR KMZZ 212135Z AUTO 08004KT 5SM -RA OVC006 19/19 A2976 RMK AO2 P0004 T01880188
Observed Flight Rules
Jun-21 @ 21:35 UTC (31 minutes ago) Instrument Flight Rules
Wind Visibility Clouds Conditions
80° at 4 knots 5 miles
  • Overcast at 600' AGL
  • Light Rain
Temperatures Readings Precipitation
Current 19°C / 66°F
Dewpoint 19°C / 66°F
Humidity 100%
Altimeter 29.76" Hg
Pressure 1008 hPa
Elevation 262
Current Rain 0.04
METAR KMZZ 212135Z AUTO 08004KT 5SM -RA OVC006 19/19 A2976 RMK AO2 P0004 T01880188
Observed Flight Rules
Jun-21 @ 21:35 UTC
(31 minutes ago)
IFR
Wind Visibility
80° at 4 knots 5 miles
Clouds
  • Overcast at 600' AGL
Conditions
  • Light Rain
Temperature Dewpoint
19°C / 66°F 19°C / 66°F
Humidity Altimeter Pressure
100% 29.76" Hg 1008 hPa
Current Rain
0.04